sensor_id;sensor_type;location;lat;lon;timestamp;temperature;humidity
7384;DHT22;3733;47.994;8.820;2023-07-31T00:00:24;13.20;99.90
7384;DHT22;3733;47.994;8.820;2023-07-31T00:02:51;13.10;99.90
7384;DHT22;3733;47.994;8.820;2023-07-31T00:05:17;13.00;99.90
7384;DHT22;3733;47.994;8.820;2023-07-31T00:07:43;13.00;99.90
7384;DHT22;3733;47.994;8.820;2023-07-31T00:10:08;12.90;99.90
7384;DHT22;3733;47.994;8.820;2023-07-31T00:12:34;12.90;99.90
7384;DHT22;3733;47.994;8.820;2023-07-31T00:15:00;12.80;99.90
7384;DHT22;3733;47.994;8.820;2023-07-31T00:17:25;12.80;99.90
7384;DHT22;3733;47.994;8.820;2023-07-31T00:19:51;12.70;99.90
7384;DHT22;3733;47.994;8.820;2023-07-31T00:22:16;12.70;99.90
7384;DHT22;3733;47.994;8.820;2023-07-31T00:24:42;12.70;99.90
7384;DHT22;3733;47.994;8.820;2023-07-31T00:27:07;12.70;99.90
7384;DHT22;3733;47.994;8.820;2023-07-31T00:29:33;12.70;99.90
7384;DHT22;3733;47.994;8.820;2023-07-31T00:31:58;12.60;99.90
7384;DHT22;3733;47.994;8.820;2023-07-31T00:34:24;12.60;99.90
7384;DHT22;3733;47.994;8.820;2023-07-31T00:36:50;12.60;99.90
7384;DHT22;3733;47.994;8.820;2023-07-31T00:39:15;12.60;99.90
7384;DHT22;3733;47.994;8.820;2023-07-31T00:41:41;12.60;99.90
7384;DHT22;3733;47.994;8.820;2023-07-31T00:44:06;12.60;99.90
7384;DHT22;3733;47.994;8.820;2023-07-31T00:46:32;12.70;99.90
7384;DHT22;3733;47.994;8.820;2023-07-31T00:48:58;12.60;99.90
7384;DHT22;3733;47.994;8.820;2023-07-31T00:51:24;12.60;99.90
7384;DHT22;3733;47.994;8.820;2023-07-31T00:53:50;12.60;99.90
7384;DHT22;3733;47.994;8.820;2023-07-31T00:56:16;12.60;99.90
7384;DHT22;3733;47.994;8.820;2023-07-31T00:58:41;12.60;99.90
7384;DHT22;3733;47.994;8.820;2023-07-31T01:01:07;12.60;99.90
7384;DHT22;3733;47.994;8.820;2023-07-31T01:03:33;12.60;99.90
7384;DHT22;3733;47.994;8.820;2023-07-31T01:06:18;12.60;99.90
7384;DHT22;3733;47.994;8.820;2023-07-31T01:11:38;12.50;99.90
7384;DHT22;3733;47.994;8.820;2023-07-31T01:14:07;12.50;99.90
7384;DHT22;3733;47.994;8.820;2023-07-31T01:16:32;12.50;99.90
7384;DHT22;3733;47.994;8.820;2023-07-31T01:18:58;12.40;99.90
7384;DHT22;3733;47.994;8.820;2023-07-31T01:21:48;12.40;99.90
7384;DHT22;3733;47.994;8.820;2023-07-31T01:24:59;12.30;99.90
7384;DHT22;3733;47.994;8.820;2023-07-31T01:27:32;12.30;99.90
7384;DHT22;3733;47.994;8.820;2023-07-31T01:30:05;12.20;99.90
7384;DHT22;3733;47.994;8.820;2023-07-31T01:32:36;12.20;99.90
7384;DHT22;3733;47.994;8.820;2023-07-31T01:35:05;12.20;99.90
7384;DHT22;3733;47.994;8.820;2023-07-31T01:37:31;12.10;99.90
7384;DHT22;3733;47.994;8.820;2023-07-31T01:39:57;12.10;99.90
7384;DHT22;3733;47.994;8.820;2023-07-31T01:42:22;12.10;99.90
7384;DHT22;3733;47.994;8.820;2023-07-31T01:44:48;12.10;99.90
7384;DHT22;3733;47.994;8.820;2023-07-31T01:47:13;12.10;99.90
7384;DHT22;3733;47.994;8.820;2023-07-31T01:49:39;12.10;99.90
7384;DHT22;3733;47.994;8.820;2023-07-31T01:52:05;12.10;99.90
7384;DHT22;3733;47.994;8.820;2023-07-31T01:54:30;12.10;99.90
7384;DHT22;3733;47.994;8.820;2023-07-31T01:56:56;12.00;99.90
7384;DHT22;3733;47.994;8.820;2023-07-31T01:59:22;12.00;99.90
7384;DHT22;3733;47.994;8.820;2023-07-31T02:01:47;12.00;99.90
7384;DHT22;3733;47.994;8.820;2023-07-31T02:04:13;11.90;99.90
7384;DHT22;3733;47.994;8.820;2023-07-31T02:06:39;11.90;99.90
7384;DHT22;3733;47.994;8.820;2023-07-31T02:09:04;11.90;99.90
7384;DHT22;3733;47.994;8.820;2023-07-31T02:11:30;11.90;99.90
7384;DHT22;3733;47.994;8.820;2023-07-31T02:13:55;11.90;99.90
7384;DHT22;3733;47.994;8.820;2023-07-31T02:16:21;11.90;99.90
7384;DHT22;3733;47.994;8.820;2023-07-31T02:18:47;11.90;99.90
7384;DHT22;3733;47.994;8.820;2023-07-31T02:21:12;11.80;99.90
7384;DHT22;3733;47.994;8.820;2023-07-31T02:23:38;11.80;99.90
7384;DHT22;3733;47.994;8.820;2023-07-31T02:26:03;11.80;99.90
7384;DHT22;3733;47.994;8.820;2023-07-31T02:28:29;11.80;99.90
7384;DHT22;3733;47.994;8.820;2023-07-31T02:30:55;11.80;99.90
7384;DHT22;3733;47.994;8.820;2023-07-31T02:33:20;11.80;99.90
7384;DHT22;3733;47.994;8.820;2023-07-31T02:35:46;11.70;99.90
7384;DHT22;3733;47.994;8.820;2023-07-31T02:38:12;11.70;99.90
7384;DHT22;3733;47.994;8.820;2023-07-31T02:40:38;11.70;99.90
7384;DHT22;3733;47.994;8.820;2023-07-31T02:43:04;11.60;99.90
7384;DHT22;3733;47.994;8.820;2023-07-31T02:45:30;11.60;99.90
7384;DHT22;3733;47.994;8.820;2023-07-31T02:47:55;11.50;99.90
7384;DHT22;3733;47.994;8.820;2023-07-31T02:50:21;11.50;99.90
7384;DHT22;3733;47.994;8.820;2023-07-31T02:52:46;11.40;99.90
7384;DHT22;3733;47.994;8.820;2023-07-31T02:55:12;11.40;99.90
7384;DHT22;3733;47.994;8.820;2023-07-31T02:57:37;11.40;99.90
7384;DHT22;3733;47.994;8.820;2023-07-31T03:00:04;11.40;99.90
7384;DHT22;3733;47.994;8.820;2023-07-31T03:02:32;11.40;99.90
7384;DHT22;3733;47.994;8.820;2023-07-31T03:04:57;11.40;99.90
7384;DHT22;3733;47.994;8.820;2023-07-31T03:07:23;11.40;99.90
7384;DHT22;3733;47.994;8.820;2023-07-31T03:09:48;11.30;99.90
7384;DHT22;3733;47.994;8.820;2023-07-31T03:12:14;11.30;99.90
7384;DHT22;3733;47.994;8.820;2023-07-31T03:14:40;11.30;99.90
7384;DHT22;3733;47.994;8.820;2023-07-31T03:17:06;11.30;99.90
7384;DHT22;3733;47.994;8.820;2023-07-31T03:19:32;11.30;99.90
7384;DHT22;3733;47.994;8.820;2023-07-31T03:21:58;11.30;99.90
7384;DHT22;3733;47.994;8.820;2023-07-31T03:24:24;11.30;99.90
7384;DHT22;3733;47.994;8.820;2023-07-31T03:26:50;11.30;99.90
7384;DHT22;3733;47.994;8.820;2023-07-31T03:29:15;11.30;99.90
7384;DHT22;3733;47.994;8.820;2023-07-31T03:31:41;11.30;99.90
7384;DHT22;3733;47.994;8.820;2023-07-31T03:34:06;11.30;99.90
7384;DHT22;3733;47.994;8.820;2023-07-31T03:36:32;11.30;99.90
7384;DHT22;3733;47.994;8.820;2023-07-31T03:38:58;11.30;99.90
7384;DHT22;3733;47.994;8.820;2023-07-31T03:41:23;11.30;99.90
7384;DHT22;3733;47.994;8.820;2023-07-31T03:43:50;11.20;99.90
7384;DHT22;3733;47.994;8.820;2023-07-31T03:46:21;11.20;99.90
7384;DHT22;3733;47.994;8.820;2023-07-31T03:48:47;11.20;99.90
7384;DHT22;3733;47.994;8.820;2023-07-31T03:51:13;11.20;99.90
7384;DHT22;3733;47.994;8.820;2023-07-31T03:53:39;11.20;99.90
7384;DHT22;3733;47.994;8.820;2023-07-31T03:56:04;11.20;99.90
7384;DHT22;3733;47.994;8.820;2023-07-31T03:58:30;11.20;99.90
7384;DHT22;3733;47.994;8.820;2023-07-31T04:00:55;11.20;99.90
7384;DHT22;3733;47.994;8.820;2023-07-31T04:03:21;11.20;99.90
7384;DHT22;3733;47.994;8.820;2023-07-31T04:05:46;11.20;99.90
7384;DHT22;3733;47.994;8.820;2023-07-31T04:08:12;11.20;99.90
7384;DHT22;3733;47.994;8.820;2023-07-31T04:10:38;11.20;99.90
7384;DHT22;3733;47.994;8.820;2023-07-31T04:13:03;11.30;99.90
7384;DHT22;3733;47.994;8.820;2023-07-31T04:15:29;11.30;99.90
7384;DHT22;3733;47.994;8.820;2023-07-31T04:17:54;11.30;99.90
7384;DHT22;3733;47.994;8.820;2023-07-31T04:20:20;11.30;99.90
7384;DHT22;3733;47.994;8.820;2023-07-31T04:22:46;11.40;99.90
7384;DHT22;3733;47.994;8.820;2023-07-31T04:25:11;11.40;99.90
7384;DHT22;3733;47.994;8.820;2023-07-31T04:27:37;11.40;99.90
7384;DHT22;3733;47.994;8.820;2023-07-31T04:30:03;11.40;99.90
7384;DHT22;3733;47.994;8.820;2023-07-31T04:32:28;11.40;99.90
7384;DHT22;3733;47.994;8.820;2023-07-31T04:34:55;11.40;99.90
7384;DHT22;3733;47.994;8.820;2023-07-31T04:37:20;11.50;99.90
7384;DHT22;3733;47.994;8.820;2023-07-31T04:39:46;11.50;99.90
7384;DHT22;3733;47.994;8.820;2023-07-31T04:42:12;11.50;99.90
7384;DHT22;3733;47.994;8.820;2023-07-31T04:44:37;11.60;99.90
7384;DHT22;3733;47.994;8.820;2023-07-31T04:47:03;11.60;99.90
7384;DHT22;3733;47.994;8.820;2023-07-31T04:49:29;11.60;99.90
7384;DHT22;3733;47.994;8.820;2023-07-31T04:51:54;11.70;99.90
7384;DHT22;3733;47.994;8.820;2023-07-31T04:54:20;11.70;99.90
7384;DHT22;3733;47.994;8.820;2023-07-31T04:56:45;11.70;99.90
7384;DHT22;3733;47.994;8.820;2023-07-31T04:59:11;11.80;99.90
7384;DHT22;3733;47.994;8.820;2023-07-31T05:01:37;11.80;99.90
7384;DHT22;3733;47.994;8.820;2023-07-31T05:04:02;11.90;99.90
7384;DHT22;3733;47.994;8.820;2023-07-31T05:06:28;12.00;99.90
7384;DHT22;3733;47.994;8.820;2023-07-31T05:08:53;12.10;99.90
7384;DHT22;3733;47.994;8.820;2023-07-31T05:11:19;12.20;99.90
7384;DHT22;3733;47.994;8.820;2023-07-31T05:13:45;12.30;99.90
7384;DHT22;3733;47.994;8.820;2023-07-31T05:16:10;12.40;99.90
7384;DHT22;3733;47.994;8.820;2023-07-31T05:18:36;12.40;99.90
7384;DHT22;3733;47.994;8.820;2023-07-31T05:21:01;12.50;99.90
7384;DHT22;3733;47.994;8.820;2023-07-31T05:23:27;12.50;99.90
7384;DHT22;3733;47.994;8.820;2023-07-31T05:25:53;12.60;99.90
7384;DHT22;3733;47.994;8.820;2023-07-31T05:28:18;12.60;99.90
7384;DHT22;3733;47.994;8.820;2023-07-31T05:30:44;12.60;99.90
7384;DHT22;3733;47.994;8.820;2023-07-31T05:33:09;12.60;99.90
7384;DHT22;3733;47.994;8.820;2023-07-31T05:35:35;12.60;99.90
7384;DHT22;3733;47.994;8.820;2023-07-31T05:38:01;12.60;99.90
7384;DHT22;3733;47.994;8.820;2023-07-31T05:40:26;12.60;99.90
7384;DHT22;3733;47.994;8.820;2023-07-31T05:42:52;12.60;99.90
7384;DHT22;3733;47.994;8.820;2023-07-31T05:45:17;12.60;99.90
7384;DHT22;3733;47.994;8.820;2023-07-31T05:47:43;12.70;99.90
7384;DHT22;3733;47.994;8.820;2023-07-31T05:50:09;12.70;99.90
7384;DHT22;3733;47.994;8.820;2023-07-31T05:52:34;12.70;99.90
7384;DHT22;3733;47.994;8.820;2023-07-31T05:55:00;12.80;99.90
7384;DHT22;3733;47.994;8.820;2023-07-31T05:57:26;12.80;99.90
7384;DHT22;3733;47.994;8.820;2023-07-31T05:59:52;12.80;99.90
7384;DHT22;3733;47.994;8.820;2023-07-31T06:02:18;12.90;99.90
7384;DHT22;3733;47.994;8.820;2023-07-31T06:04:44;12.90;99.90
7384;DHT22;3733;47.994;8.820;2023-07-31T06:07:10;13.00;99.90
7384;DHT22;3733;47.994;8.820;2023-07-31T06:09:36;13.10;99.90
7384;DHT22;3733;47.994;8.820;2023-07-31T06:12:02;13.10;99.90
7384;DHT22;3733;47.994;8.820;2023-07-31T06:14:27;13.20;99.90
7384;DHT22;3733;47.994;8.820;2023-07-31T06:16:53;13.20;99.90
7384;DHT22;3733;47.994;8.820;2023-07-31T06:19:18;13.30;99.90
7384;DHT22;3733;47.994;8.820;2023-07-31T06:21:45;13.40;99.90
7384;DHT22;3733;47.994;8.820;2023-07-31T06:24:11;13.40;99.90
7384;DHT22;3733;47.994;8.820;2023-07-31T06:26:37;13.40;99.90
7384;DHT22;3733;47.994;8.820;2023-07-31T06:29:03;13.50;99.90
7384;DHT22;3733;47.994;8.820;2023-07-31T06:31:28;13.50;99.90
7384;DHT22;3733;47.994;8.820;2023-07-31T06:33:54;13.60;99.90
7384;DHT22;3733;47.994;8.820;2023-07-31T06:36:20;13.70;99.90
7384;DHT22;3733;47.994;8.820;2023-07-31T06:38:45;13.70;99.90
7384;DHT22;3733;47.994;8.820;2023-07-31T06:41:11;13.70;99.90
7384;DHT22;3733;47.994;8.820;2023-07-31T06:43:37;13.80;99.90
7384;DHT22;3733;47.994;8.820;2023-07-31T06:46:06;13.90;99.90
7384;DHT22;3733;47.994;8.820;2023-07-31T06:48:33;14.00;99.90
7384;DHT22;3733;47.994;8.820;2023-07-31T06:50:58;14.00;99.90
7384;DHT22;3733;47.994;8.820;2023-07-31T06:53:24;14.20;99.90
7384;DHT22;3733;47.994;8.820;2023-07-31T06:55:50;14.20;99.90
7384;DHT22;3733;47.994;8.820;2023-07-31T06:58:17;14.30;99.90
7384;DHT22;3733;47.994;8.820;2023-07-31T07:00:43;14.40;99.90
7384;DHT22;3733;47.994;8.820;2023-07-31T07:03:09;14.40;99.90
7384;DHT22;3733;47.994;8.820;2023-07-31T07:05:34;14.50;99.90
7384;DHT22;3733;47.994;8.820;2023-07-31T07:08:00;14.60;99.90
7384;DHT22;3733;47.994;8.820;2023-07-31T07:10:26;14.70;99.90
7384;DHT22;3733;47.994;8.820;2023-07-31T07:12:52;14.80;99.90
7384;DHT22;3733;47.994;8.820;2023-07-31T07:15:18;14.90;99.90
7384;DHT22;3733;47.994;8.820;2023-07-31T07:17:43;15.10;99.90
7384;DHT22;3733;47.994;8.820;2023-07-31T07:20:09;15.30;99.90
7384;DHT22;3733;47.994;8.820;2023-07-31T07:22:35;15.40;99.90
7384;DHT22;3733;47.994;8.820;2023-07-31T07:25:01;15.50;99.90
7384;DHT22;3733;47.994;8.820;2023-07-31T07:27:26;15.50;99.90
7384;DHT22;3733;47.994;8.820;2023-07-31T07:29:52;15.50;99.90
7384;DHT22;3733;47.994;8.820;2023-07-31T07:32:18;15.60;98.90
7384;DHT22;3733;47.994;8.820;2023-07-31T07:34:44;15.70;95.90
7384;DHT22;3733;47.994;8.820;2023-07-31T07:37:10;15.70;93.00
7384;DHT22;3733;47.994;8.820;2023-07-31T07:39:35;15.80;92.70
7384;DHT22;3733;47.994;8.820;2023-07-31T07:42:01;15.90;92.80
7384;DHT22;3733;47.994;8.820;2023-07-31T07:44:26;16.00;92.10
7384;DHT22;3733;47.994;8.820;2023-07-31T07:46:52;16.00;91.30
7384;DHT22;3733;47.994;8.820;2023-07-31T07:49:18;16.10;90.90
7384;DHT22;3733;47.994;8.820;2023-07-31T07:51:43;16.30;91.40
7384;DHT22;3733;47.994;8.820;2023-07-31T07:54:09;16.40;91.50
7384;DHT22;3733;47.994;8.820;2023-07-31T07:56:34;16.50;90.10
7384;DHT22;3733;47.994;8.820;2023-07-31T07:59:01;16.50;83.90
7384;DHT22;3733;47.994;8.820;2023-07-31T08:01:27;16.50;84.30
7384;DHT22;3733;47.994;8.820;2023-07-31T08:03:53;16.40;84.00
7384;DHT22;3733;47.994;8.820;2023-07-31T08:06:18;16.50;82.90
7384;DHT22;3733;47.994;8.820;2023-07-31T08:08:44;16.70;78.70
7384;DHT22;3733;47.994;8.820;2023-07-31T08:11:09;16.80;76.00
7384;DHT22;3733;47.994;8.820;2023-07-31T08:13:35;16.90;73.90
7384;DHT22;3733;47.994;8.820;2023-07-31T08:16:03;17.10;72.30
7384;DHT22;3733;47.994;8.820;2023-07-31T08:18:30;17.20;70.10
7384;DHT22;3733;47.994;8.820;2023-07-31T08:20:56;17.30;70.30
7384;DHT22;3733;47.994;8.820;2023-07-31T08:23:21;17.40;69.00
7384;DHT22;3733;47.994;8.820;2023-07-31T08:25:47;17.50;67.50
7384;DHT22;3733;47.994;8.820;2023-07-31T08:28:15;17.50;68.00
7384;DHT22;3733;47.994;8.820;2023-07-31T08:30:41;17.60;67.10
7384;DHT22;3733;47.994;8.820;2023-07-31T08:33:07;17.70;67.20
7384;DHT22;3733;47.994;8.820;2023-07-31T08:35:33;17.80;66.20
7384;DHT22;3733;47.994;8.820;2023-07-31T08:37:59;17.80;65.90
7384;DHT22;3733;47.994;8.820;2023-07-31T08:40:25;17.90;65.50
7384;DHT22;3733;47.994;8.820;2023-07-31T08:42:54;17.90;65.30
7384;DHT22;3733;47.994;8.820;2023-07-31T08:45:22;17.90;64.20
7384;DHT22;3733;47.994;8.820;2023-07-31T08:47:52;18.00;63.90
7384;DHT22;3733;47.994;8.820;2023-07-31T08:50:19;18.00;65.00
7384;DHT22;3733;47.994;8.820;2023-07-31T08:52:49;18.10;64.60
7384;DHT22;3733;47.994;8.820;2023-07-31T08:55:15;18.30;65.90
7384;DHT22;3733;47.994;8.820;2023-07-31T08:57:42;18.40;66.00
7384;DHT22;3733;47.994;8.820;2023-07-31T09:00:09;18.60;64.40
7384;DHT22;3733;47.994;8.820;2023-07-31T09:05:23;18.80;63.40
7384;DHT22;3733;47.994;8.820;2023-07-31T09:07:51;18.90;61.70
7384;DHT22;3733;47.994;8.820;2023-07-31T09:10:17;19.00;60.70
7384;DHT22;3733;47.994;8.820;2023-07-31T09:12:42;19.10;60.90
7384;DHT22;3733;47.994;8.820;2023-07-31T09:15:09;19.20;59.60
7384;DHT22;3733;47.994;8.820;2023-07-31T09:17:36;19.30;58.70
7384;DHT22;3733;47.994;8.820;2023-07-31T09:20:16;19.40;59.30
7384;DHT22;3733;47.994;8.820;2023-07-31T09:22:43;19.50;58.60
7384;DHT22;3733;47.994;8.820;2023-07-31T09:25:23;19.60;57.50
7384;DHT22;3733;47.994;8.820;2023-07-31T09:27:59;19.70;58.00
7384;DHT22;3733;47.994;8.820;2023-07-31T09:30:25;19.80;56.70
7384;DHT22;3733;47.994;8.820;2023-07-31T09:32:55;19.80;57.40
7384;DHT22;3733;47.994;8.820;2023-07-31T09:35:33;19.80;57.60
7384;DHT22;3733;47.994;8.820;2023-07-31T09:38:02;20.00;57.80
7384;DHT22;3733;47.994;8.820;2023-07-31T09:40:33;20.10;56.90
7384;DHT22;3733;47.994;8.820;2023-07-31T09:43:03;20.20;57.60
7384;DHT22;3733;47.994;8.820;2023-07-31T09:45:29;20.40;57.30
7384;DHT22;3733;47.994;8.820;2023-07-31T09:47:56;20.40;56.30
7384;DHT22;3733;47.994;8.820;2023-07-31T09:50:23;20.40;56.00
7384;DHT22;3733;47.994;8.820;2023-07-31T09:52:52;20.30;55.80
7384;DHT22;3733;47.994;8.820;2023-07-31T09:55:18;20.30;56.80
7384;DHT22;3733;47.994;8.820;2023-07-31T09:57:48;20.50;56.60
7384;DHT22;3733;47.994;8.820;2023-07-31T10:00:16;20.60;56.40
7384;DHT22;3733;47.994;8.820;2023-07-31T10:02:45;20.70;56.20
7384;DHT22;3733;47.994;8.820;2023-07-31T10:05:15;20.70;55.70
7384;DHT22;3733;47.994;8.820;2023-07-31T10:07:45;20.80;57.10
7384;DHT22;3733;47.994;8.820;2023-07-31T10:10:15;21.00;56.60
7384;DHT22;3733;47.994;8.820;2023-07-31T10:12:42;21.10;57.20
7384;DHT22;3733;47.994;8.820;2023-07-31T10:15:09;21.30;56.60
7384;DHT22;3733;47.994;8.820;2023-07-31T10:17:36;21.40;55.90
7384;DHT22;3733;47.994;8.820;2023-07-31T10:20:02;21.50;54.70
7384;DHT22;3733;47.994;8.820;2023-07-31T10:22:30;21.60;54.70
7384;DHT22;3733;47.994;8.820;2023-07-31T10:24:58;21.60;54.10
7384;DHT22;3733;47.994;8.820;2023-07-31T10:27:24;21.60;54.60
7384;DHT22;3733;47.994;8.820;2023-07-31T10:29:50;21.70;54.50
7384;DHT22;3733;47.994;8.820;2023-07-31T10:32:17;21.80;54.80
7384;DHT22;3733;47.994;8.820;2023-07-31T10:34:44;21.80;54.90
7384;DHT22;3733;47.994;8.820;2023-07-31T10:37:27;21.80;54.00
7384;DHT22;3733;47.994;8.820;2023-07-31T10:39:56;21.80;54.80
7384;DHT22;3733;47.994;8.820;2023-07-31T10:42:31;21.90;54.00
7384;DHT22;3733;47.994;8.820;2023-07-31T10:44:58;21.70;53.40
7384;DHT22;3733;47.994;8.820;2023-07-31T10:47:24;21.70;54.20
7384;DHT22;3733;47.994;8.820;2023-07-31T10:49:50;21.70;53.30
7384;DHT22;3733;47.994;8.820;2023-07-31T10:52:20;21.70;53.70
7384;DHT22;3733;47.994;8.820;2023-07-31T10:54:50;21.80;54.00
7384;DHT22;3733;47.994;8.820;2023-07-31T10:57:22;22.00;54.60
7384;DHT22;3733;47.994;8.820;2023-07-31T10:59:50;22.10;53.20
7384;DHT22;3733;47.994;8.820;2023-07-31T11:02:33;22.30;52.90
7384;DHT22;3733;47.994;8.820;2023-07-31T11:05:09;22.30;51.70
7384;DHT22;3733;47.994;8.820;2023-07-31T11:07:50;22.40;51.70
7384;DHT22;3733;47.994;8.820;2023-07-31T11:10:19;22.40;51.40
7384;DHT22;3733;47.994;8.820;2023-07-31T11:12:47;22.50;52.30
7384;DHT22;3733;47.994;8.820;2023-07-31T11:15:13;22.60;52.10
7384;DHT22;3733;47.994;8.820;2023-07-31T11:17:39;22.70;51.70
7384;DHT22;3733;47.994;8.820;2023-07-31T11:20:06;22.80;51.70
7384;DHT22;3733;47.994;8.820;2023-07-31T11:22:34;22.80;51.10
7384;DHT22;3733;47.994;8.820;2023-07-31T11:25:00;22.70;50.40
7384;DHT22;3733;47.994;8.820;2023-07-31T11:27:28;22.50;51.20
7384;DHT22;3733;47.994;8.820;2023-07-31T11:30:00;22.40;51.90
7384;DHT22;3733;47.994;8.820;2023-07-31T11:32:27;22.60;52.50
7384;DHT22;3733;47.994;8.820;2023-07-31T11:34:53;22.70;52.00
7384;DHT22;3733;47.994;8.820;2023-07-31T11:37:19;22.90;50.70
7384;DHT22;3733;47.994;8.820;2023-07-31T11:40:01;23.00;50.80
7384;DHT22;3733;47.994;8.820;2023-07-31T11:42:27;23.10;51.90
7384;DHT22;3733;47.994;8.820;2023-07-31T11:44:52;23.50;51.70
7384;DHT22;3733;47.994;8.820;2023-07-31T11:47:18;23.60;50.70
7384;DHT22;3733;47.994;8.820;2023-07-31T11:49:44;23.60;50.10
7384;DHT22;3733;47.994;8.820;2023-07-31T11:52:11;23.60;50.50
7384;DHT22;3733;47.994;8.820;2023-07-31T11:54:39;23.60;50.60
7384;DHT22;3733;47.994;8.820;2023-07-31T11:57:06;23.70;50.80
7384;DHT22;3733;47.994;8.820;2023-07-31T11:59:32;23.90;50.30
7384;DHT22;3733;47.994;8.820;2023-07-31T12:01:58;24.00;50.40
7384;DHT22;3733;47.994;8.820;2023-07-31T12:04:24;24.10;49.90
7384;DHT22;3733;47.994;8.820;2023-07-31T12:06:49;24.30;50.80
7384;DHT22;3733;47.994;8.820;2023-07-31T12:09:17;24.40;49.60
7384;DHT22;3733;47.994;8.820;2023-07-31T12:11:44;24.50;48.30
7384;DHT22;3733;47.994;8.820;2023-07-31T12:14:41;24.50;47.80
7384;DHT22;3733;47.994;8.820;2023-07-31T12:17:07;24.50;47.60
7384;DHT22;3733;47.994;8.820;2023-07-31T12:19:33;24.40;48.00
7384;DHT22;3733;47.994;8.820;2023-07-31T12:22:00;24.50;48.00
7384;DHT22;3733;47.994;8.820;2023-07-31T12:24:26;24.50;47.50
7384;DHT22;3733;47.994;8.820;2023-07-31T12:26:52;24.70;48.70
7384;DHT22;3733;47.994;8.820;2023-07-31T12:29:18;24.90;48.20
7384;DHT22;3733;47.994;8.820;2023-07-31T12:31:44;25.00;48.00
7384;DHT22;3733;47.994;8.820;2023-07-31T12:34:17;24.90;47.50
7384;DHT22;3733;47.994;8.820;2023-07-31T12:36:43;24.70;47.90
7384;DHT22;3733;47.994;8.820;2023-07-31T12:39:09;24.50;48.80
7384;DHT22;3733;47.994;8.820;2023-07-31T12:41:35;24.30;48.70
7384;DHT22;3733;47.994;8.820;2023-07-31T12:44:01;24.10;48.90
7384;DHT22;3733;47.994;8.820;2023-07-31T12:46:26;23.80;49.10
7384;DHT22;3733;47.994;8.820;2023-07-31T12:48:52;23.70;49.70
7384;DHT22;3733;47.994;8.820;2023-07-31T12:51:17;23.80;51.80
7384;DHT22;3733;47.994;8.820;2023-07-31T12:53:43;24.10;52.60
7384;DHT22;3733;47.994;8.820;2023-07-31T12:56:09;24.30;50.70
7384;DHT22;3733;47.994;8.820;2023-07-31T12:58:34;24.50;49.80
7384;DHT22;3733;47.994;8.820;2023-07-31T13:01:00;24.70;49.80
7384;DHT22;3733;47.994;8.820;2023-07-31T13:03:27;24.90;49.90
7384;DHT22;3733;47.994;8.820;2023-07-31T13:05:53;25.10;48.20
7384;DHT22;3733;47.994;8.820;2023-07-31T13:08:18;25.10;48.00
7384;DHT22;3733;47.994;8.820;2023-07-31T13:10:44;25.00;47.60
7384;DHT22;3733;47.994;8.820;2023-07-31T13:13:10;24.90;48.00
7384;DHT22;3733;47.994;8.820;2023-07-31T13:15:35;24.80;48.10
7384;DHT22;3733;47.994;8.820;2023-07-31T13:18:01;24.70;48.30
7384;DHT22;3733;47.994;8.820;2023-07-31T13:20:27;24.40;48.40
7384;DHT22;3733;47.994;8.820;2023-07-31T13:22:52;24.30;48.80
7384;DHT22;3733;47.994;8.820;2023-07-31T13:25:18;24.30;48.70
7384;DHT22;3733;47.994;8.820;2023-07-31T13:27:43;24.40;49.60
7384;DHT22;3733;47.994;8.820;2023-07-31T13:30:09;24.50;49.30
7384;DHT22;3733;47.994;8.820;2023-07-31T13:32:35;24.40;48.70
7384;DHT22;3733;47.994;8.820;2023-07-31T13:35:08;24.30;49.00
7384;DHT22;3733;47.994;8.820;2023-07-31T13:37:34;24.00;48.70
7384;DHT22;3733;47.994;8.820;2023-07-31T13:40:00;23.80;49.60
7384;DHT22;3733;47.994;8.820;2023-07-31T13:42:26;23.90;49.70
7384;DHT22;3733;47.994;8.820;2023-07-31T13:44:53;24.00;49.80
7384;DHT22;3733;47.994;8.820;2023-07-31T13:47:21;24.20;50.20
7384;DHT22;3733;47.994;8.820;2023-07-31T13:49:47;24.50;50.30
7384;DHT22;3733;47.994;8.820;2023-07-31T13:52:12;24.80;50.30
7384;DHT22;3733;47.994;8.820;2023-07-31T13:54:38;25.20;49.20
7384;DHT22;3733;47.994;8.820;2023-07-31T13:57:03;25.40;48.30
7384;DHT22;3733;47.994;8.820;2023-07-31T13:59:29;25.60;48.70
7384;DHT22;3733;47.994;8.820;2023-07-31T14:01:55;25.60;47.90
7384;DHT22;3733;47.994;8.820;2023-07-31T14:04:20;25.30;46.80
7384;DHT22;3733;47.994;8.820;2023-07-31T14:06:46;24.90;46.90
7384;DHT22;3733;47.994;8.820;2023-07-31T14:09:13;24.80;47.40
7384;DHT22;3733;47.994;8.820;2023-07-31T14:11:39;24.80;49.10
7384;DHT22;3733;47.994;8.820;2023-07-31T14:14:05;24.70;47.70
7384;DHT22;3733;47.994;8.820;2023-07-31T14:16:31;24.70;46.50
7384;DHT22;3733;47.994;8.820;2023-07-31T14:18:56;24.70;45.40
7384;DHT22;3733;47.994;8.820;2023-07-31T14:21:25;24.80;45.80
7384;DHT22;3733;47.994;8.820;2023-07-31T14:23:50;25.10;46.20
7384;DHT22;3733;47.994;8.820;2023-07-31T14:26:16;25.40;46.50
7384;DHT22;3733;47.994;8.820;2023-07-31T14:28:42;25.70;45.70
7384;DHT22;3733;47.994;8.820;2023-07-31T14:31:07;26.00;45.60
7384;DHT22;3733;47.994;8.820;2023-07-31T14:33:33;26.30;42.90
7384;DHT22;3733;47.994;8.820;2023-07-31T14:35:59;26.30;43.10
7384;DHT22;3733;47.994;8.820;2023-07-31T14:38:24;26.20;43.20
7384;DHT22;3733;47.994;8.820;2023-07-31T14:40:50;25.90;42.80
7384;DHT22;3733;47.994;8.820;2023-07-31T14:43:17;25.60;43.20
7384;DHT22;3733;47.994;8.820;2023-07-31T14:45:43;25.30;44.20
7384;DHT22;3733;47.994;8.820;2023-07-31T14:48:08;25.10;45.40
7384;DHT22;3733;47.994;8.820;2023-07-31T14:50:34;24.90;45.60
7384;DHT22;3733;47.994;8.820;2023-07-31T14:53:00;24.80;46.50
7384;DHT22;3733;47.994;8.820;2023-07-31T14:55:26;24.80;47.60
7384;DHT22;3733;47.994;8.820;2023-07-31T14:57:51;24.90;47.90
7384;DHT22;3733;47.994;8.820;2023-07-31T15:00:17;24.90;46.40
7384;DHT22;3733;47.994;8.820;2023-07-31T15:02:42;24.80;46.20
7384;DHT22;3733;47.994;8.820;2023-07-31T15:05:08;24.80;47.30
7384;DHT22;3733;47.994;8.820;2023-07-31T15:07:34;24.80;47.10
7384;DHT22;3733;47.994;8.820;2023-07-31T15:10:02;24.70;45.80
7384;DHT22;3733;47.994;8.820;2023-07-31T15:12:28;24.50;44.90
7384;DHT22;3733;47.994;8.820;2023-07-31T15:14:54;24.40;45.40
7384;DHT22;3733;47.994;8.820;2023-07-31T15:17:20;24.30;45.60
7384;DHT22;3733;47.994;8.820;2023-07-31T15:19:45;24.10;45.60
7384;DHT22;3733;47.994;8.820;2023-07-31T15:22:11;24.00;45.20
7384;DHT22;3733;47.994;8.820;2023-07-31T15:24:37;23.90;45.30
7384;DHT22;3733;47.994;8.820;2023-07-31T15:27:02;23.80;45.60
7384;DHT22;3733;47.994;8.820;2023-07-31T15:29:29;23.70;46.20
7384;DHT22;3733;47.994;8.820;2023-07-31T15:31:54;23.70;46.90
7384;DHT22;3733;47.994;8.820;2023-07-31T15:34:20;23.60;46.30
7384;DHT22;3733;47.994;8.820;2023-07-31T15:36:46;23.60;46.40
7384;DHT22;3733;47.994;8.820;2023-07-31T15:39:12;23.70;47.20
7384;DHT22;3733;47.994;8.820;2023-07-31T15:41:38;23.70;47.40
7384;DHT22;3733;47.994;8.820;2023-07-31T15:44:05;23.80;47.30
7384;DHT22;3733;47.994;8.820;2023-07-31T15:46:31;23.80;47.30
7384;DHT22;3733;47.994;8.820;2023-07-31T15:48:56;23.80;46.60
7384;DHT22;3733;47.994;8.820;2023-07-31T15:51:22;23.90;46.10
7384;DHT22;3733;47.994;8.820;2023-07-31T15:53:48;23.90;46.10
7384;DHT22;3733;47.994;8.820;2023-07-31T15:56:14;23.80;45.50
7384;DHT22;3733;47.994;8.820;2023-07-31T15:58:39;23.80;45.50
7384;DHT22;3733;47.994;8.820;2023-07-31T16:01:05;23.80;45.10
7384;DHT22;3733;47.994;8.820;2023-07-31T16:03:31;23.90;46.30